Terminal Aerodrome Forecast
Issued by NWS

Home | Current Version | Previous Version | Text Only | Print | Product List | Glossary On
Versions: 1 2 3 4 5 6 7 8 9 10 11 12 13 14 15 16
820
FTPA31 PHFO 070810 AAA
TAFHJR
TAF AMD
PHJR 070810Z 0708/0806 03012G20KT P6SM VCSH SCT022 BKN045
     FM072000 35018G25KT P6SM FEW030 SCT050
     FM080500 02012G20KT P6SM SCT030 SCT050=

USA.gov is the U.S. government's official web portal to all federal, state and local government web resources and services.